Time;durP1;ratioP1;P1;durP2;ratioP2;P2;SDS_P1;SDS_P2;PMS_P1;PMS_P2;Temp;Humidity;BMP_temperature;BMP_pressure;BME280_temperature;BME280_humidity;BME280_pressure;Samples;Min_cycle;Max_cycle;Signal;HPM_P1;HPM_P2
2021/07/09 00:02:11;;;;;;;12.50;5.38;;;;;;;21.50;100.00;101380.16;5001521;28;20038;-78
2021/07/09 00:04:38;;;;;;;11.90;5.68;;;;;;;21.53;100.00;101379.34;4985817;28;20056;-78
2021/07/09 00:07:03;;;;;;;11.95;5.75;;;;;;;21.60;100.00;101368.28;4985906;28;20038;-77
2021/07/09 00:09:29;;;;;;;9.02;5.53;;;;;;;21.62;100.00;101367.88;4982397;28;20036;-77
2021/07/09 00:11:55;;;;;;;12.98;5.68;;;;;;;21.58;100.00;101365.94;4988066;28;20038;-77
2021/07/09 00:14:27;;;;;;;13.38;5.68;;;;;;;21.56;100.00;101368.31;4984097;28;20410;-78
2021/07/09 00:16:53;;;;;;;9.70;5.20;;;;;;;21.57;100.00;101369.09;4996678;28;20101;-78
2021/07/09 00:19:19;;;;;;;14.85;5.38;;;;;;;21.57;100.00;101369.09;4987529;28;20042;-77
2021/07/09 00:21:44;;;;;;;8.45;4.80;;;;;;;21.51;100.00;101370.75;4986126;28;20113;-78
2021/07/09 00:24:10;;;;;;;20.02;5.60;;;;;;;21.44;100.00;101368.09;4986055;28;20026;-79
2021/07/09 00:26:36;;;;;;;10.63;5.05;;;;;;;21.36;100.00;101378.38;4990761;28;20095;-79
2021/07/09 00:29:03;;;;;;;17.27;5.55;;;;;;;21.35;100.00;101374.06;4988313;28;20037;-79
2021/07/09 00:31:32;;;;;;;11.43;5.00;;;;;;;21.33;100.00;101368.22;4990741;28;20038;-79
2021/07/09 00:34:00;;;;;;;11.27;5.30;;;;;;;21.37;100.00;101374.44;4985982;28;20026;-79
2021/07/09 00:36:25;;;;;;;14.07;5.15;;;;;;;21.34;100.00;101372.53;4985567;28;20098;-79
2021/07/09 00:38:51;;;;;;;11.48;5.30;;;;;;;21.34;100.00;101367.03;4985983;28;20031;-79
2021/07/09 00:41:17;;;;;;;12.02;4.97;;;;;;;21.14;100.00;101373.53;4994431;28;20038;-79
2021/07/09 00:43:42;;;;;;;7.97;4.88;;;;;;;21.18;100.00;101366.84;4995628;28;20481;-79
2021/07/09 00:46:08;;;;;;;14.55;5.15;;;;;;;21.18;100.00;101380.53;4972164;28;20034;-79
2021/07/09 00:48:34;;;;;;;8.80;4.93;;;;;;;21.13;100.00;101367.31;4998366;28;20092;-79
2021/07/09 00:51:04;;;;;;;8.05;5.32;;;;;;;21.24;100.00;101378.91;4997719;28;20046;-78
2021/07/09 00:53:30;;;;;;;12.23;5.17;;;;;;;21.23;100.00;101376.59;4987635;28;20030;-79
2021/07/09 00:55:57;;;;;;;7.88;4.65;;;;;;;21.21;100.00;101377.00;4993546;28;20045;-78
2021/07/09 00:58:22;;;;;;;8.93;5.05;;;;;;;21.06;100.00;101377.56;5002759;28;20030;-79
2021/07/09 01:00:47;;;;;;;12.57;5.22;;;;;;;21.05;100.00;101386.94;4992532;28;20510;-78
2021/07/09 01:03:13;;;;;;;6.82;5.30;;;;;;;21.10;100.00;101373.59;5001309;28;20041;-78
2021/07/09 01:05:39;;;;;;;12.45;5.20;;;;;;;21.03;100.00;101373.66;4999154;28;20030;-79
2021/07/09 01:08:05;;;;;;;13.68;5.20;;;;;;;21.04;100.00;101364.25;4998947;28;20036;-78
2021/07/09 01:10:32;;;;;;;11.05;5.45;;;;;;;21.10;100.00;101361.88;4987769;28;20945;-79
2021/07/09 01:12:57;;;;;;;7.32;4.90;;;;;;;21.09;100.00;101355.59;5004239;28;20042;-79
2021/07/09 01:15:23;;;;;;;9.23;4.45;;;;;;;21.01;100.00;101354.13;4998280;28;20035;-79
2021/07/09 01:17:50;;;;;;;13.48;4.68;;;;;;;21.02;100.00;101352.16;4981193;28;20034;-79
2021/07/09 01:20:18;;;;;;;10.85;4.60;;;;;;;20.82;100.00;101351.97;4985640;28;20722;-79
2021/07/09 01:22:45;;;;;;;14.20;4.75;;;;;;;20.90;100.00;101349.91;4998687;28;20076;-79
2021/07/09 01:25:17;;;;;;;6.13;4.65;;;;;;;20.89;100.00;101359.31;4994132;28;20041;-79
2021/07/09 01:27:44;;;;;;;9.90;4.82;;;;;;;20.97;100.00;101367.06;4994821;28;20398;-78
2021/07/09 01:30:14;;;;;;;7.82;4.50;;;;;;;21.02;99.72;101358.41;4993012;28;20133;-79
2021/07/09 01:32:40;;;;;;;13.82;4.85;;;;;;;20.93;99.83;101358.09;4998809;28;20430;-79
2021/07/09 01:35:07;;;;;;;11.63;4.53;;;;;;;20.94;99.87;101362.41;4983157;28;20053;-79
2021/07/09 01:37:32;;;;;;;7.03;4.30;;;;;;;20.92;100.00;101353.03;4994467;28;20037;-79
2021/07/09 01:39:59;;;;;;;11.93;4.65;;;;;;;20.90;100.00;101347.19;4990466;28;20402;-79
2021/07/09 01:42:24;;;;;;;16.02;4.35;;;;;;;20.83;100.00;101341.78;5003892;28;20034;-79
2021/07/09 01:44:50;;;;;;;14.88;4.63;;;;;;;20.85;100.00;101348.41;4995180;28;20037;-79
2021/07/09 01:47:16;;;;;;;9.02;4.25;;;;;;;20.67;100.00;101350.56;4989763;28;20061;-79
2021/07/09 01:49:51;;;;;;;9.80;4.20;;;;;;;20.67;100.00;101361.50;4994009;28;20096;-77
2021/07/09 01:52:17;;;;;;;12.82;4.80;;;;;;;20.62;100.00;101370.13;5022629;28;20117;-79
2021/07/09 01:54:43;;;;;;;8.18;4.60;;;;;;;20.61;100.00;101371.34;4995484;28;20058;-79
2021/07/09 01:57:09;;;;;;;15.32;5.28;;;;;;;20.66;100.00;101360.72;4993440;28;20430;-79
2021/07/09 01:59:35;;;;;;;14.40;5.13;;;;;;;20.62;100.00;101368.19;4998501;28;20034;-79
2021/07/09 02:02:00;;;;;;;10.55;4.93;;;;;;;20.65;100.00;101366.59;4990901;28;20565;-78
2021/07/09 02:04:26;;;;;;;15.40;5.22;;;;;;;20.58;100.00;101364.69;5011944;23;20528;-77
2021/07/09 02:06:51;;;;;;;13.65;5.10;;;;;;;20.55;100.00;101364.75;4994112;28;20466;-76
2021/07/09 02:09:17;;;;;;;13.15;4.95;;;;;;;20.53;100.00;101364.38;4987929;28;20030;-74
2021/07/09 02:11:44;;;;;;;17.35;5.38;;;;;;;20.54;100.00;101363.97;5009840;28;20069;-74
2021/07/09 02:14:10;;;;;;;7.75;4.72;;;;;;;20.57;100.00;101365.13;4984115;28;20023;-75
2021/07/09 02:16:35;;;;;;;13.95;4.78;;;;;;;20.57;100.00;101365.13;4991613;28;20410;-74
2021/07/09 02:19:01;;;;;;;9.63;4.88;;;;;;;20.47;100.00;101366.75;4988959;28;20066;-74
2021/07/09 02:21:26;;;;;;;11.95;5.43;;;;;;;20.33;100.00;101379.78;5009300;28;20105;-74
2021/07/09 02:23:52;;;;;;;9.15;5.13;;;;;;;20.34;100.00;101392.28;4989460;28;20157;-76
2021/07/09 02:26:17;;;;;;;12.77;5.18;;;;;;;20.24;100.00;101393.13;5001647;28;20022;-74
2021/07/09 02:28:43;;;;;;;7.18;5.10;;;;;;;20.33;100.00;101390.72;4998716;28;20041;-75
2021/07/09 02:31:08;;;;;;;10.95;4.40;;;;;;;20.29;100.00;101379.03;4998439;28;20402;-74
2021/07/09 02:33:34;;;;;;;16.67;5.18;;;;;;;20.28;100.00;101382.94;4993736;28;20030;-74
2021/07/09 02:35:59;;;;;;;12.93;5.13;;;;;;;20.28;100.00;101380.22;4996790;28;20041;-74
2021/07/09 02:38:24;;;;;;;14.00;5.18;;;;;;;20.32;100.00;101375.50;5004926;28;20478;-74
2021/07/09 02:40:50;;;;;;;15.18;5.32;;;;;;;20.20;100.00;101373.22;4992485;28;20033;-73
2021/07/09 02:43:15;;;;;;;8.15;5.50;;;;;;;20.18;100.00;101373.66;4986680;28;20395;-75
2021/07/09 02:45:41;;;;;;;10.07;5.30;;;;;;;20.15;100.00;101390.06;4994593;28;20395;-74
2021/07/09 02:48:06;;;;;;;13.38;5.00;;;;;;;20.26;100.00;101382.56;5011405;28;20093;-74
2021/07/09 02:50:32;;;;;;;12.05;5.00;;;;;;;20.29;100.00;101371.59;4992607;28;20022;-74
2021/07/09 02:52:57;;;;;;;11.27;5.45;;;;;;;20.25;100.00;101373.56;4980905;28;20050;-76
2021/07/09 02:55:23;;;;;;;16.08;5.80;;;;;;;20.29;100.00;101379.03;4996150;28;20041;-74
2021/07/09 02:57:49;;;;;;;8.90;5.20;;;;;;;20.31;100.00;101362.97;4992578;28;20483;-74
2021/07/09 03:00:16;;;;;;;12.02;5.55;;;;;;;20.32;100.00;101353.59;4990015;28;20089;-74
2021/07/09 03:02:42;;;;;;;11.60;5.45;;;;;;;20.27;100.00;101343.84;4993722;28;20733;-75
2021/07/09 03:05:09;;;;;;;12.20;5.50;;;;;;;20.26;100.00;101341.53;4993222;28;20657;-75
2021/07/09 03:07:35;;;;;;;8.73;5.35;;;;;;;20.24;100.00;101338.41;4991248;28;20031;-75
2021/07/09 03:10:01;;;;;;;16.50;6.00;;;;;;;20.21;100.00;101344.72;4982493;28;20443;-75
2021/07/09 03:12:28;;;;;;;9.90;5.85;;;;;;;20.19;100.00;101347.81;5001970;28;20026;-75
2021/07/09 03:14:54;;;;;;;8.95;5.78;;;;;;;20.24;100.00;101338.41;4987974;28;20081;-75
2021/07/09 03:17:19;;;;;;;16.98;6.45;;;;;;;20.17;100.00;101339.22;4993473;28;20034;-75
2021/07/09 03:19:44;;;;;;;8.73;5.90;;;;;;;20.21;100.00;101344.72;4991013;28;20022;-74
2021/07/09 03:22:10;;;;;;;9.45;6.00;;;;;;;20.12;100.00;101352.53;4991065;28;20387;-75
2021/07/09 03:24:35;;;;;;;10.27;5.47;;;;;;;20.08;100.00;101346.31;4993206;28;20119;-75
2021/07/09 03:27:01;;;;;;;8.77;5.88;;;;;;;20.03;100.00;101349.50;5001014;28;20093;-75
2021/07/09 03:29:27;;;;;;;16.63;6.13;;;;;;;20.10;100.00;101350.22;5001928;28;20040;-75
2021/07/09 03:31:52;;;;;;;11.93;5.80;;;;;;;20.07;100.00;101333.84;4987649;28;20124;-75
2021/07/09 03:34:17;;;;;;;13.77;5.43;;;;;;;20.16;100.00;101336.88;5000302;28;20053;-76
2021/07/09 03:36:43;;;;;;;10.77;5.90;;;;;;;20.20;100.00;101334.94;4989826;28;20120;-75
2021/07/09 03:39:11;;;;;;;20.77;6.03;;;;;;;20.26;100.00;101338.78;4989186;28;20033;-75
2021/07/09 03:41:37;;;;;;;12.00;6.32;;;;;;;20.27;100.00;101329.41;4985871;28;20022;-76
2021/07/09 03:44:03;;;;;;;14.13;6.57;;;;;;;20.34;100.00;101334.81;4992528;28;20030;-76
2021/07/09 03:46:28;;;;;;;16.13;6.43;;;;;;;20.38;100.00;101324.63;4985897;28;20570;-76
2021/07/09 03:48:54;;;;;;;14.38;6.07;;;;;;;20.34;100.00;101330.09;4994140;28;20128;-74
2021/07/09 03:51:19;;;;;;;12.52;5.47;;;;;;;20.31;100.00;101330.16;4991563;28;20033;-76
2021/07/09 03:53:45;;;;;;;22.15;6.25;;;;;;;20.37;100.00;101328.53;4992471;28;20395;-76
2021/07/09 03:56:10;;;;;;;13.55;6.20;;;;;;;20.34;100.00;101315.66;4998527;28;20022;-76
2021/07/09 03:58:36;;;;;;;18.20;6.55;;;;;;;20.30;100.00;101320.41;4998348;28;20030;-76
2021/07/09 04:01:04;;;;;;;18.20;6.30;;;;;;;20.29;100.00;101318.81;4986862;28;20046;-75
2021/07/09 04:03:30;;;;;;;10.57;5.90;;;;;;;20.33;100.00;101314.09;4988665;28;20034;-76
2021/07/09 04:05:55;;;;;;;14.32;6.32;;;;;;;20.36;100.00;101318.78;4977936;28;20076;-76
2021/07/09 04:08:21;;;;;;;22.23;6.00;;;;;;;20.37;100.00;101309.38;4988635;28;20062;-76
2021/07/09 04:10:46;;;;;;;17.35;6.22;;;;;;;20.33;100.00;101301.19;4982533;28;20111;-76
2021/07/09 04:13:13;;;;;;;14.18;6.35;;;;;;;20.45;100.00;101299.91;5004715;28;20040;-75
2021/07/09 04:15:39;;;;;;;9.75;5.40;;;;;;;;;;4988873;28;20391;-76
2021/07/09 04:18:04;;;;;;;18.40;6.38;;;;;;;20.56;100.00;101287.69;4993016;28;20041;-76
2021/07/09 04:20:30;;;;;;;20.30;6.60;;;;;;;20.59;100.00;101283.34;4989985;28;20041;-76
2021/07/09 04:22:56;;;;;;;11.05;6.28;;;;;;;20.65;100.00;101276.25;4982759;28;20053;-76
2021/07/09 04:25:22;;;;;;;11.98;6.00;;;;;;;20.63;100.00;101273.91;5000237;28;20030;-76
2021/07/09 04:27:48;;;;;;;18.52;6.40;;;;;;;20.72;100.00;101280.88;5011094;28;20159;-76
2021/07/09 04:30:14;;;;;;;14.20;5.95;;;;;;;20.72;100.00;101278.91;4998659;28;20121;-75
2021/07/09 04:32:39;;;;;;;15.10;5.68;;;;;;;20.75;100.00;101274.59;4983158;28;20710;-76
2021/07/09 04:35:06;;;;;;;12.40;6.18;;;;;;;20.80;100.00;101283.13;4987896;28;20030;-76
2021/07/09 04:37:32;;;;;;;19.88;6.40;;;;;;;20.80;100.00;101285.88;4988624;28;20376;-76
2021/07/09 04:39:57;;;;;;;10.98;5.93;;;;;;;20.79;100.00;101280.81;4985602;28;20033;-76
2021/07/09 04:42:23;;;;;;;19.70;6.15;;;;;;;20.93;100.00;101280.63;4985885;28;20042;-76
2021/07/09 04:44:48;;;;;;;11.57;6.18;;;;;;;20.90;100.00;101279.50;4988639;28;20037;-75
2021/07/09 04:47:14;;;;;;;17.88;6.45;;;;;;;20.94;100.00;101272.00;5003766;28;20038;-76
2021/07/09 04:49:39;;;;;;;12.77;5.90;;;;;;;20.97;100.00;101279.41;4991110;28;20414;-75
2021/07/09 04:52:05;;;;;;;14.55;5.75;;;;;;;21.10;100.00;101272.22;4988767;28;20085;-76
2021/07/09 04:54:31;;;;;;;14.02;6.13;;;;;;;21.06;100.00;101285.19;4990477;28;20032;-76
2021/07/09 04:56:57;;;;;;;14.55;5.93;;;;;;;20.97;100.00;101281.34;4994688;28;20124;-76
2021/07/09 04:59:22;;;;;;;17.05;6.00;;;;;;;20.95;100.00;101294.69;4988935;28;20041;-76
2021/07/09 05:01:48;;;;;;;17.63;6.20;;;;;;;20.91;100.00;101283.00;4984528;28;20031;-76
2021/07/09 05:04:13;;;;;;;14.10;5.95;;;;;;;20.92;100.00;101290.03;4996925;28;20574;-76
2021/07/09 05:06:39;;;;;;;9.07;5.40;;;;;;;20.92;100.00;101285.34;4988989;28;20526;-76
2021/07/09 05:09:05;;;;;;;10.73;5.45;;;;;;;20.96;100.00;101286.06;4988806;28;20113;-76
2021/07/09 05:11:35;;;;;;;12.13;5.47;;;;;;;20.96;100.00;101291.56;4990919;28;20061;-76
2021/07/09 05:14:04;;;;;;;12.23;5.50;;;;;;;21.02;100.00;101287.19;4990753;28;20038;-76
2021/07/09 05:16:29;;;;;;;12.82;5.30;;;;;;;21.00;100.00;101289.53;4989085;28;20034;-76
2021/07/09 05:18:56;;;;;;;11.00;5.57;;;;;;;21.07;100.00;101285.97;4986869;28;20049;-76
2021/07/09 05:21:23;;;;;;;15.27;5.47;;;;;;;21.24;100.00;101285.72;4981613;28;20037;-76
2021/07/09 05:23:48;;;;;;;12.98;5.65;;;;;;;21.42;100.00;101282.75;4986155;28;20034;-76
2021/07/09 05:26:15;;;;;;;16.70;5.43;;;;;;;21.81;98.60;101279.47;4989796;28;20430;-76
2021/07/09 05:28:40;;;;;;;11.82;5.10;;;;;;;22.08;96.75;101272.75;4999599;28;20041;-76
2021/07/09 05:31:06;;;;;;;7.07;4.18;;;;;;;22.42;94.32;101269.78;4999516;28;20034;-76
2021/07/09 05:33:32;;;;;;;8.15;3.92;;;;;;;22.91;91.72;101263.38;4966503;28;20045;-75
2021/07/09 05:35:57;;;;;;;9.10;3.63;;;;;;;23.35;89.75;101270.31;5000448;28;20030;-76
2021/07/09 05:38:23;;;;;;;10.82;3.40;;;;;;;23.64;87.37;101275.94;4984550;28;20068;-76
2021/07/09 05:40:48;;;;;;;9.70;3.28;;;;;;;23.81;86.31;101280.25;4993096;28;20037;-75
2021/07/09 05:43:14;;;;;;;4.82;3.33;;;;;;;23.98;85.63;101279.06;4988854;28;20117;-76
2021/07/09 05:45:40;;;;;;;8.70;3.03;;;;;;;23.94;85.13;101273.59;4999586;28;20033;-76
2021/07/09 05:48:05;;;;;;;6.72;3.47;;;;;;;23.96;85.25;101278.72;4996965;28;20034;-76
2021/07/09 05:50:31;;;;;;;6.35;3.10;;;;;;;23.86;85.29;101275.00;4988250;28;20517;-76
2021/07/09 05:52:56;;;;;;;9.32;2.67;;;;;;;23.87;85.45;101267.50;4987736;28;20042;-74
2021/07/09 05:55:23;;;;;;;8.27;2.58;;;;;;;23.91;85.21;101268.97;4997898;28;20033;-76
2021/07/09 05:57:48;;;;;;;4.72;2.13;;;;;;;23.84;86.47;101274.66;4994573;28;20622;-76
2021/07/09 06:00:15;;;;;;;9.40;2.63;;;;;;;23.81;85.15;101274.75;4992744;28;20061;-74
2021/07/09 06:02:40;;;;;;;8.90;2.50;;;;;;;23.73;84.86;101278.88;4986039;28;20038;-76
2021/07/09 06:05:07;;;;;;;5.88;2.42;;;;;;;23.85;85.10;101275.41;5003899;28;20038;-76
2021/07/09 06:07:33;;;;;;;4.88;2.38;;;;;;;23.93;85.85;101282.31;5001614;28;20038;-76
2021/07/09 06:09:58;;;;;;;6.22;2.50;;;;;;;23.98;84.66;101281.81;4987834;28;20394;-76
2021/07/09 06:12:24;;;;;;;10.20;2.80;;;;;;;23.96;85.34;101271.19;4992549;28;20491;-75
2021/07/09 06:14:51;;;;;;;7.68;2.38;;;;;;;23.93;85.40;101268.53;4991260;28;20030;-76
2021/07/09 06:17:18;;;;;;;5.20;2.30;;;;;;;23.93;85.13;101266.56;4990066;28;20033;-76
2021/07/09 06:19:43;;;;;;;4.95;2.20;;;;;;;23.79;83.87;101268.91;4988034;28;20022;-76
2021/07/09 06:22:11;;;;;;;4.45;2.20;;;;;;;23.72;84.27;101269.06;4991586;28;20053;-76
2021/07/09 06:24:37;;;;;;;5.82;2.25;;;;;;;23.77;84.11;101274.06;5005224;28;20453;-75
2021/07/09 06:27:03;;;;;;;6.82;2.65;;;;;;;23.59;85.17;101279.19;4987057;28;20126;-75
2021/07/09 06:29:28;;;;;;;8.35;2.70;;;;;;;23.56;86.60;101286.31;4985052;28;20037;-75
2021/07/09 06:31:54;;;;;;;9.32;2.95;;;;;;;23.45;86.94;101274.78;4992156;28;20502;-75
2021/07/09 06:34:20;;;;;;;6.35;2.75;;;;;;;23.34;87.78;101271.53;4997462;28;20167;-75
2021/07/09 06:36:45;;;;;;;5.57;2.88;;;;;;;23.28;88.32;101281.44;4998404;28;20040;-75
2021/07/09 06:39:11;;;;;;;8.18;3.00;;;;;;;23.28;88.06;101287.72;4987271;28;20128;-75
2021/07/09 06:41:36;;;;;;;8.48;3.05;;;;;;;23.32;88.31;101289.63;4989870;28;20437;-76
2021/07/09 06:44:02;;;;;;;9.95;2.67;;;;;;;23.31;88.45;101286.09;5001980;28;20017;-76
2021/07/09 06:46:28;;;;;;;4.90;2.90;;;;;;;23.29;89.07;101281.00;5002924;28;20402;-75
2021/07/09 06:48:53;;;;;;;7.07;3.05;;;;;;;23.25;89.19;101280.31;5008035;28;20050;-76
2021/07/09 06:51:19;;;;;;;8.38;3.17;;;;;;;23.30;89.39;101268.81;4990794;28;20034;-75
2021/07/09 06:53:47;;;;;;;4.68;3.38;;;;;;;23.29;89.69;101272.75;4996097;28;20053;-73
2021/07/09 06:56:14;;;;;;;8.40;3.13;;;;;;;23.30;88.62;101277.06;5003428;28;20037;-75
2021/07/09 06:58:39;;;;;;;4.95;2.97;;;;;;;23.38;87.72;101279.69;4985650;28;20122;-75
2021/07/09 07:01:05;;;;;;;7.88;3.10;;;;;;;23.39;87.86;101275.72;4984590;28;20499;-75
2021/07/09 07:03:30;;;;;;;8.43;3.08;;;;;;;23.64;87.33;101275.94;5000239;28;20403;-75
2021/07/09 07:05:55;;;;;;;6.13;2.70;;;;;;;23.70;87.60;101275.00;4988093;28;20034;-75
2021/07/09 07:08:25;;;;;;;7.28;2.97;;;;;;;23.89;87.00;101276.09;4991067;28;20034;-76
2021/07/09 07:10:52;;;;;;;8.57;3.00;;;;;;;23.92;88.06;101278.03;4983620;28;20121;-76
2021/07/09 07:13:18;;;;;;;7.65;3.47;;;;;;;23.93;86.56;101277.59;4992876;28;20038;-76
2021/07/09 07:15:44;;;;;;;7.95;3.20;;;;;;;23.88;86.87;101280.88;4985365;28;20030;-75
2021/07/09 07:18:12;;;;;;;4.47;3.20;;;;;;;23.99;87.89;101272.31;4993269;28;20568;-76
2021/07/09 07:20:41;;;;;;;6.57;3.20;;;;;;;23.89;87.62;101270.59;5001495;28;20416;-76
2021/07/09 07:23:08;;;;;;;7.28;3.33;;;;;;;23.99;87.43;101280.59;4987886;28;20129;-75
2021/07/09 07:25:34;;;;;;;12.25;3.70;;;;;;;23.94;87.41;101281.88;5001047;28;20034;-74
2021/07/09 07:28:00;;;;;;;4.47;3.65;;;;;;;24.09;86.51;101291.38;5002680;28;20030;-75
2021/07/09 07:30:26;;;;;;;6.25;3.42;;;;;;;24.02;86.92;101285.28;5001580;28;20491;-75
2021/07/09 07:32:51;;;;;;;9.30;3.60;;;;;;;23.95;87.55;101299.94;4992116;28;20427;-75
2021/07/09 07:35:17;;;;;;;5.32;3.40;;;;;;;24.01;87.59;101294.69;4992404;28;20080;-74
2021/07/09 07:37:42;;;;;;;7.88;3.28;;;;;;;24.06;88.41;101285.97;4988345;28;20038;-75
2021/07/09 07:40:08;;;;;;;7.32;4.05;;;;;;;23.95;89.20;101288.94;4988837;28;20414;-75
2021/07/09 07:42:34;;;;;;;6.97;3.55;;;;;;;24.01;89.07;101289.19;4981735;28;20033;-74
2021/07/09 07:44:59;;;;;;;7.70;4.18;;;;;;;23.88;89.00;101282.84;4992353;28;20545;-74
2021/07/09 07:47:25;;;;;;;10.23;3.72;;;;;;;23.85;89.39;101284.47;4992170;28;20041;-76
2021/07/09 07:49:50;;;;;;;6.25;3.72;;;;;;;24.03;89.14;101286.81;4995960;28;20033;-76
2021/07/09 07:52:16;;;;;;;3.85;3.45;;;;;;;23.94;89.79;101278.38;4987764;28;20037;-75
2021/07/09 07:54:42;;;;;;;7.15;3.10;;;;;;;24.04;89.39;101282.88;4983660;28;20034;-75
2021/07/09 07:57:07;;;;;;;4.43;3.72;;;;;;;23.97;89.42;101280.25;4990016;28;20048;-75
2021/07/09 07:59:33;;;;;;;6.10;3.30;;;;;;;24.03;88.62;101281.31;4989144;28;20050;-74
2021/07/09 08:01:58;;;;;;;7.20;3.70;;;;;;;23.95;89.17;101283.44;4982327;28;20038;-75
2021/07/09 08:04:24;;;;;;;7.22;3.40;;;;;;;24.03;89.21;101284.06;5001131;23;20153;-77
2021/07/09 08:06:49;;;;;;;8.65;3.63;;;;;;;24.10;89.17;101289.38;4985327;28;20041;-77
2021/07/09 08:09:15;;;;;;;6.38;3.50;;;;;;;24.15;88.90;101283.38;4995646;28;20026;-76
2021/07/09 08:11:41;;;;;;;6.45;3.30;;;;;;;24.17;88.14;101275.44;4989777;28;20041;-77
2021/07/09 08:14:07;;;;;;;5.32;3.55;;;;;;;24.27;88.43;101287.41;4987055;28;20395;-77
2021/07/09 08:16:33;;;;;;;6.63;3.65;;;;;;;24.43;86.26;101295.63;4963336;28;20058;-76
2021/07/09 08:18:58;;;;;;;6.28;3.35;;;;;;;24.52;86.70;101298.53;4965178;28;20035;-77
2021/07/09 08:21:24;;;;;;;8.23;3.20;;;;;;;24.62;86.39;101291.97;4972112;28;20061;-76
2021/07/09 08:23:50;;;;;;;7.35;3.10;;;;;;;24.68;86.34;101290.97;4980187;28;20031;-77
2021/07/09 08:26:15;;;;;;;4.45;3.65;;;;;;;24.74;85.47;101292.03;4968416;28;20039;-77
2021/07/09 08:28:41;;;;;;;8.23;3.53;;;;;;;24.69;85.34;101289.00;4959593;28;20034;-77
2021/07/09 08:31:06;;;;;;;7.32;3.70;;;;;;;24.54;86.22;101291.38;4949904;28;20470;-77
2021/07/09 08:33:32;;;;;;;7.53;3.15;;;;;;;24.47;85.98;101293.53;4965886;28;20045;-77
2021/07/09 08:35:58;;;;;;;7.00;3.10;;;;;;;24.46;87.07;101295.53;4955531;28;20117;-77
2021/07/09 08:38:23;;;;;;;5.75;3.20;;;;;;;24.48;88.45;101295.09;4964030;28;20555;-77
2021/07/09 08:40:49;;;;;;;4.40;3.30;;;;;;;24.55;87.27;101298.44;4969478;28;20026;-77
2021/07/09 08:43:14;;;;;;;4.90;3.40;;;;;;;24.55;88.12;101289.38;4978750;28;20034;-77
2021/07/09 08:45:40;;;;;;;4.95;3.40;;;;;;;24.63;87.33;101291.53;4961906;28;20065;-78
2021/07/09 08:48:08;;;;;;;7.45;3.58;;;;;;;24.84;87.01;101298.47;4954287;28;20035;-76
2021/07/09 08:50:34;;;;;;;5.88;3.40;;;;;;;24.85;86.72;101297.25;4970763;28;21099;-77
2021/07/09 08:52:59;;;;;;;5.28;3.20;;;;;;;24.68;87.30;101296.50;4985079;28;20042;-77
2021/07/09 08:55:25;;;;;;;8.30;3.25;;;;;;;24.67;86.91;101289.44;4958238;28;20105;-78
2021/07/09 08:57:50;;;;;;;9.88;4.03;;;;;;;24.70;86.54;101291.31;4964654;28;20031;-78
2021/07/09 09:00:22;;;;;;;5.95;3.75;;;;;;;24.77;86.56;101284.88;4970548;28;20050;-77
2021/07/09 09:02:47;;;;;;;;;;;;;;;24.56;86.50;101283.47;4964900;28;20549;-77
2021/07/09 09:05:23;;;;;;;8.23;3.58;;;;;;;24.77;84.94;101282.13;4962095;28;20001;-77
2021/07/09 09:07:59;;;;;;;6.35;3.67;;;;;;;24.91;85.38;101285.25;4968401;28;20558;-76
2021/07/09 09:10:38;;;;;;;5.70;3.17;;;;;;;24.98;85.55;101276.78;4966807;28;20035;-77
2021/07/09 09:13:09;;;;;;;5.32;3.25;;;;;;;25.17;84.55;101280.56;4976866;28;20042;-76
2021/07/09 09:15:36;;;;;;;5.05;3.15;;;;;;;25.21;84.65;101272.94;4966153;28;20109;-77
2021/07/09 09:18:25;;;;;;;3.80;2.90;;;;;;;25.07;83.74;101272.63;4968316;28;20352;-77
2021/07/09 09:21:08;;;;;;;9.57;3.47;;;;;;;25.05;82.95;101287.59;4966409;28;20045;-77
2021/07/09 09:23:49;;;;;;;7.32;3.65;;;;;;;24.99;83.00;101285.81;4961270;28;20496;-77
2021/07/09 09:26:38;;;;;;;5.05;3.53;;;;;;;24.74;83.23;101278.25;4963226;28;20039;-76
2021/07/09 09:29:03;;;;;;;6.70;3.55;;;;;;;24.87;83.44;101279.06;4967582;28;20416;-77
2021/07/09 09:31:36;;;;;;;3.72;3.38;;;;;;;24.74;83.44;101285.75;4975267;28;20045;-77
2021/07/09 09:34:04;;;;;;;3.83;2.78;;;;;;;24.74;82.59;101269.97;4959662;28;20038;-77
2021/07/09 09:36:30;;;;;;;5.05;3.33;;;;;;;24.64;83.26;101275.78;4967570;28;20488;-76
2021/07/09 09:38:59;;;;;;;3.85;2.97;;;;;;;24.68;82.09;101265.44;4973147;28;20046;-77
2021/07/09 09:41:25;;;;;;;6.88;3.03;;;;;;;24.55;82.29;101268.13;4960602;28;20035;-77
2021/07/09 09:43:51;;;;;;;4.38;3.15;;;;;;;24.63;82.98;101263.19;4955637;28;20024;-77
2021/07/09 09:46:26;;;;;;;5.95;3.20;;;;;;;24.54;84.39;101255.56;4972726;28;20038;-77
2021/07/09 09:48:51;;;;;;;4.50;3.28;;;;;;;24.64;84.38;101257.25;4962879;28;20203;-77
2021/07/09 09:51:36;;;;;;;3.50;3.00;;;;;;;24.60;84.72;101266.84;4962605;28;20119;-77
2021/07/09 09:54:04;;;;;;;4.85;2.90;;;;;;;24.58;84.19;101263.75;4947933;28;20669;-77
2021/07/09 09:56:44;;;;;;;4.35;2.88;;;;;;;24.47;85.07;101269.53;4961452;28;20023;-76
2021/07/09 09:59:22;;;;;;;4.60;3.05;;;;;;;24.60;82.98;101267.59;4961256;28;20542;-77
2021/07/09 10:01:52;;;;;;;6.05;2.83;;;;;;;24.62;84.24;101276.19;4958683;28;20393;-77
2021/07/09 10:04:18;;;;;;;3.47;2.90;;;;;;;24.66;84.12;101267.84;4976471;28;20030;-77
2021/07/09 10:06:44;;;;;;;6.43;3.40;;;;;;;24.72;83.75;101266.88;4975619;28;20031;-76
2021/07/09 10:09:11;;;;;;;9.23;3.30;;;;;;;24.71;83.91;101262.56;4960798;28;20491;-77
2021/07/09 10:11:38;;;;;;;6.18;3.47;;;;;;;24.69;82.98;101259.47;4972349;28;20110;-77
2021/07/09 10:14:09;;;;;;;4.40;3.10;;;;;;;24.76;82.21;101255.75;4970680;28;20019;-76
2021/07/09 10:16:36;;;;;;;3.40;2.70;;;;;;;24.76;83.27;101262.06;4963556;28;20101;-76
2021/07/09 10:19:02;;;;;;;4.03;3.00;;;;;;;24.76;81.72;101256.53;4964341;28;20038;-77
2021/07/09 10:21:28;;;;;;;3.88;2.83;;;;;;;24.68;82.67;101257.16;4966033;28;20835;-76
2021/07/09 10:23:53;;;;;;;6.88;3.28;;;;;;;24.72;83.55;101255.09;4972681;28;20024;-76
2021/07/09 10:26:19;;;;;;;4.28;2.90;;;;;;;24.70;83.73;101252.75;4963939;28;20049;-77
2021/07/09 10:29:22;;;;;;;4.47;3.33;;;;;;;24.61;82.68;101244.34;4976588;28;20043;-77
2021/07/09 10:31:51;;;;;;;4.72;2.80;;;;;;;24.59;81.81;101249.53;4963266;28;20487;-77
2021/07/09 10:34:30;;;;;;;4.80;2.80;;;;;;;24.44;82.16;101239.31;4966477;28;20467;-77
2021/07/09 10:37:00;;;;;;;5.70;2.88;;;;;;;24.52;82.28;101235.94;4959491;28;20039;-76
2021/07/09 10:39:36;;;;;;;3.30;2.90;;;;;;;24.44;83.89;101245.63;4958580;28;20035;-77
2021/07/09 10:42:30;;;;;;;5.00;3.15;;;;;;;24.41;85.78;101251.97;4960660;28;20042;-76
2021/07/09 10:45:17;;;;;;;5.10;3.70;;;;;;;24.50;86.20;101243.09;4961150;28;20071;-76
2021/07/09 10:48:05;;;;;;;5.82;3.72;;;;;;;24.31;88.61;101241.25;4965893;28;20118;-76
2021/07/09 10:50:34;;;;;;;8.55;3.70;;;;;;;24.25;90.02;101240.25;4955417;28;20043;-76
2021/07/09 10:53:04;;;;;;;4.57;4.18;;;;;;;24.18;92.22;101243.94;4963638;28;20039;-76
2021/07/09 10:55:37;;;;;;;12.02;4.45;;;;;;;24.24;92.12;101244.19;4968276;28;20113;-77
2021/07/09 10:58:16;;;;;;;5.88;4.22;;;;;;;24.14;93.13;101244.03;4970175;28;20031;-76
2021/07/09 11:00:45;;;;;;;5.03;3.92;;;;;;;24.18;93.05;101241.97;4973512;28;20537;-76
2021/07/09 11:03:20;;;;;;;6.43;4.25;;;;;;;24.12;92.77;101235.44;4959859;28;20038;-76
2021/07/09 11:05:46;;;;;;;5.53;4.78;;;;;;;24.15;92.67;101231.84;4957114;28;20043;-76
2021/07/09 11:08:29;;;;;;;6.45;4.80;;;;;;;24.02;92.59;101238.47;4961476;28;20105;-77
2021/07/09 11:10:56;;;;;;;5.65;4.50;;;;;;;24.11;92.77;101236.66;4971605;28;20388;-76
2021/07/09 11:13:40;;;;;;;5.55;4.65;;;;;;;24.08;93.46;101234.75;4960236;28;20479;-77
2021/07/09 11:16:24;;;;;;;7.82;4.90;;;;;;;24.17;94.47;101251.44;4975719;28;20443;-77
2021/07/09 11:19:00;;;;;;;7.53;5.25;;;;;;;24.24;95.87;101249.69;4958551;28;20496;-76
2021/07/09 11:21:31;;;;;;;10.95;5.72;;;;;;;24.22;96.40;101252.88;4963009;28;20035;-75